21 de maio de 2022

Tempo Código Clima Temp. Visão Nuvens Vento METAR/SPECI
21:00
V
13 °C 40 km - 180°   180° 5 kt METAR CYVR 220400Z 18005KT 25SM FEW055 13/10 A3019 RMK SC1 SLP225
20:00
V
15 °C 40 km - 240°   240° 4 kt METAR CYVR 220300Z 24004KT 25SM SKC 15/10 A3017 RMK SLP220
19:00
V
16 °C 40 km - 220°   220° 6 kt METAR CYVR 220200Z 22006KT 200V270 25SM FEW040 16/09 A3017 RMK CU1 CU TR TCU TOP SE SLP219
18:00
V
17 °C 48 km - 280°   280° 7 kt METAR CYVR 220100Z 28007KT 30SM FEW040 FEW080 17/09 A3018 RMK CU1AC1 CU TR AC TR SLP221 DENSITY ALT 100FT
17:00
V
17 °C 48 km - 260°   260° 7 kt METAR CYVR 220000Z 26007KT 30SM FEW040 17/08 A3019 RMK CU1 CU TR SLP224
16:00
V
17 °C 48 km - 250°   250° 7 kt METAR CYVR 212300Z 25007KT 230V290 30SM FEW040 FEW080 17/10 A3019 RMK CU1AC1 CU TR AC TR SLP226
15:00
V
17 °C 48 km - 290°   290° 6 kt METAR CYVR 212200Z 29006KT 250V320 30SM FEW040 FEW080 17/09 A3021 RMK CU1AC2 CU TR SLP232
14:00
V
15 °C 48 km - 250°   250° 7 kt METAR CYVR 212100Z 25007KT 30SM FEW035 FEW055 15/10 A3022 RMK CU1SC1 CU TR SLP236
13:00
V
14 °C 48 km - 240°   240° 7 kt METAR CYVR 212000Z 24007KT 30SM FEW030 FEW055 14/10 A3023 RMK CU1SC1 CU TR SC TR TCU ASOCTD SLP240
12:00
V
13 °C 48 km - 240°   240° 6 kt METAR CYVR 211900Z 24006KT 200V290 30SM FEW025 FEW080 13/08 A3024 RMK CU1AC1 CU TR AC TR SLP242
11:00
V
12 °C 48 km - 230°   230° 7 kt METAR CYVR 211800Z 23007KT 30SM FEW020 FEW055 12/09 A3023 RMK CU1SC1 CU TR SC TR SLP240
10:00
V
12 °C 48 km - 240°   240° 5 kt METAR CYVR 211700Z 24005KT 190V280 30SM FEW015 FEW055 FEW080 12/09 A3024 RMK CU1SC1AC1 CU TR SC TR AC TR SLP243
09:00
V
12 °C 48 km - 220°   220° 7 kt METAR CYVR 211600Z 22007KT 200V260 30SM FEW055 12/08 A3024 RMK SC1 SC TR SLP241
08:00
V
11 °C 48 km - 200°   200° 4 kt METAR CYVR 211500Z 20004KT 30SM FEW055 11/09 A3024 RMK SC1 SC TR SLP241
07:00
V
10 °C 48 km - 140°   140° 3 kt METAR CYVR 211400Z 14003KT 30SM FEW055 FEW120 10/08 A3023 RMK SC1AC1 SC TR AC TR SLP239
06:00
V
8 °C 32 km - Var   Var 2 kt METAR CYVR 211300Z VRB02KT 20SM FEW055 FEW120 08/07 A3022 RMK SC1AC1 SC TR AC TR SLP236
05:00
V
7 °C 24 km - Var   000° 0 kt METAR CYVR 211200Z 00000KT 15SM FEW055 FEW120 07/06 A3021 RMK SC1AC1 SC TR AC TR SLP232
04:00
V
6 °C 24 km - 330°   330° 3 kt METAR CYVR 211100Z 33003KT 330V030 15SM FEW090 06/06 A3020 RMK AC1 AC TR SLP230
03:00
V
9 °C 24 km - Var   000° 0 kt METAR CYVR 211000Z 00000KT 15SM FEW055 09/06 A3020 RMK SC1 SC TR SLP228
02:00
V
9 °C 24 km - Var   000° 0 kt METAR CYVR 210900Z 00000KT 15SM SKC 09/07 A3020 RMK SLP229
01:00
V
10 °C 24 km - 150°   150° 4 kt METAR CYVR 210800Z 15004KT 15SM SKC 10/07 A3020 RMK SLP229
00:00
V
11 °C 24 km - Var   Var 2 kt METAR CYVR 210700Z VRB02KT 15SM FEW060 11/06 A3019 RMK SC1 SC TR SLP227

20 de maio de 2022

Tempo Código Clima Temp. Visão Nuvens Vento METAR/SPECI
23:00
V
11 °C 24 km - 100°   100° 6 kt METAR CYVR 210600Z 10006KT 15SM FEW050 11/06 A3019 RMK SC1 SC TR SLP227
22:00
V
12 °C 24 km - 110°   110° 4 kt METAR CYVR 210500Z 11004KT 15SM FEW050 FEW110 12/07 A3019 RMK SC1AC1 SC TR AC TR SLP225
21:00
V
13 °C 24 km - 170°   170° 7 kt METAR CYVR 210400Z 17007KT 15SM FEW042CB FEW050 FEW120 13/08 A3017 RMK CB1SC1AC1 CB TR SC TR AC TR CB SE VIRGA SE TCU ASOCTD NE SLP220
20:26
V
13 °C 48 km - 120°   120° 6 kt METAR CYVR 210326Z 12006KT 30SM FEW042CB FEW052 FEW120 13/07 A3018 RMK CB1SC1AC1 SC TR AC TR CB E VIRGA NE SLP222
20:00
V
14 °C 48 km - 140°   140° 5 kt METAR CYVR 210300Z 14005KT 30SM FEW049 FEW100 14/07 A3017 RMK SC2AC1 AC TR CU ASOCTD E SLP219
19:00
V
14 °C 48 km - 210°   210° 7 15 kt METAR CYVR 210200Z 21007G15KT 190V250 30SM FEW038 FEW042CB FEW090 14/08 A3016 RMK CU1CB1AC1 CU TR CB TR AC TR CB E QUAD MOVG NE SLP216
18:00
V
14 °C 48 km - 240°   240° 10 kt METAR CYVR 210100Z 24010KT 30SM FEW042CB FEW080 14/09 A3016 RMK CB1AC1 CB TR AC TR SLP217
17:00
V
14 °C 48 km - 250°   250° 8 kt METAR CYVR 210000Z 25008KT 30SM FEW042CB FEW070 14/09 A3017 RMK CB1AC1 CB TR AC TR CB E SLP220
16:00
V
14 °C 48 km - 250°   250° 7 kt METAR CYVR 202300Z 25007KT 30SM FEW040TCU FEW060 14/08 A3019 RMK TCU1SC1 TCU TR SC TR SLP227
15:00
V
13 °C 48 km - 260°   260° 7 kt METAR CYVR 202200Z 26007KT 30SM FEW040 FEW055 13/10 A3021 RMK CU1SC1 CU TR VIRGA SLP233
14:00
V
14 °C 48 km - 250°   250° 7 kt METAR CYVR 202100Z 25007KT 190V280 30SM FEW035 FEW050 14/09 A3023 RMK CU1SC1 CU TR SC TR SLP239
13:00
V
13 °C 48 km - 270°   270° 6 kt METAR CYVR 202000Z 27006KT 220V290 30SM FEW035 13/10 A3024 RMK CU1 CU TR SLP243
12:00
V
13 °C 48 km - 280°   280° 8 kt METAR CYVR 201900Z 28008KT 240V310 30SM FEW035 13/09 A3025 RMK CU1 CU TR SLP246
11:00
V
13 °C 48 km - 280°   280° 8 kt METAR CYVR 201800Z 28008KT 30SM FEW035 13/09 A3027 RMK CU1 CU TR SLP251
10:00
V
12 °C 48 km - 240°   240° 6 kt METAR CYVR 201700Z 24006KT 30SM FEW035 FEW210 12/08 A3027 RMK CU1CI1 CU TR CI TR SLP254
09:00
V
11 °C 40 km - 210°   210° 4 kt METAR CYVR 201600Z 21004KT 150V270 25SM FEW030 FEW200 11/05 A3029 RMK CU1CI2 CU TR SLP258
08:00
V
10 °C 48 km - Var   Var 2 kt METAR CYVR 201500Z VRB02KT 30SM FEW022 FEW035 SCT150 SCT220 10/06 A3029 RMK CU1SC1AC3CI1 CU TR SC TR CI TR SLP259
07:00
V
9 °C 40 km 3.400 ft 050°   050° 5 kt METAR CYVR 201400Z 05005KT 25SM FEW012 BKN034 09/05 A3028 RMK CU1SC6 CU TR SLP256
06:00
V
6 °C 32 km - 320°   320° 3 kt METAR CYVR 201300Z 32003KT 20SM FEW035 FEW068 FEW100 06/05 A3027 RMK SC1AC1AC1 SC TR AC TR AC TR SLP253
05:00
V
7 °C 24 km - 030°   030° 5 kt METAR CYVR 201200Z 03005KT 15SM FEW049 FEW065 FEW100 07/04 A3027 RMK SC1SC1AC1 SC TR SC TR AC TR SLP251
04:00
V
8 °C 24 km - 040°   040° 7 kt METAR CYVR 201100Z 04007KT 15SM FEW015 FEW045 FEW100 08/05 A3026 RMK CF1SC1AC1 CF TR SC TR AC TR SLP249
03:00
V
8 °C 24 km - 080°   080° 8 kt METAR CYVR 201000Z 08008KT 15SM FEW016 FEW100 08/05 A3026 RMK CF2AC1 AC TR SLP248
02:00
V
8 °C 24 km - 100°   100° 7 kt METAR CYVR 200900Z 10007KT 15SM FEW016 SCT100 08/06 A3025 RMK CF2AC1 SLP246
01:00
V
9 °C 24 km - 110°   110° 5 kt METAR CYVR 200800Z 11005KT 15SM FEW018 FEW100 09/06 A3025 RMK CF1AC1 CF TR SLP246
00:00
V
10 °C 24 km - 140°   140° 3 kt METAR CYVR 200700Z 14003KT 130V260 15SM FEW090 10/07 A3024 RMK AC1 AC TR SLP243

19 de maio de 2022

Tempo Código Clima Temp. Visão Nuvens Vento METAR/SPECI
23:00
V
11 °C 24 km - Var   Var 2 kt METAR CYVR 200600Z VRB02KT 15SM FEW090 11/08 A3024 RMK AC1 AC TR SLP242
22:00
V
10 °C 24 km - 150°   150° 4 kt METAR CYVR 200500Z 15004KT 140V210 15SM FEW045 FEW100 10/07 A3023 RMK SC1AC1 SC TR AC TR SLP240
21:00
V
10 °C 24 km - Var   Var 2 kt METAR CYVR 200400Z VRB02KT 15SM FEW045 FEW100 10/08 A3022 RMK SC1AC1 SC TR AC TR SLP235
20:00
V
11 °C 48 km - 300°   300° 6 kt METAR CYVR 200300Z 30006KT 30SM FEW040 FEW090 11/07 A3021 RMK SC1AC1 SC TR AC TR SLP232
19:00
V
13 °C 48 km - 290°   290° 8 kt METAR CYVR 200200Z 29008KT 30SM FEW040 FEW090 13/07 A3020 RMK SC1AC1 AC TR CU ASSOCTD SLP229
18:00
V
14 °C 48 km - 290°   290° 10 kt METAR CYVR 200100Z 29010KT 30SM FEW040 SCT085 14/06 A3020 RMK CU1AC3 CU TR SLP229
17:00
V
14 °C 48 km - 280°   280° 12 kt METAR CYVR 200000Z 28012KT 30SM FEW040 FEW070 14/05 A3020 RMK CU1AC1 CU TR AC TR SLP228
Dados mais antigos

Baixe nosso aplicativo

Fácil acesso a todas as condições meteorológicas da aviação no seu celular e no seu tablet.
Com muitos recursos não disponíveis no site, como suporte offline e uma lista pessoal de aeroportos.

Nós e terceiros acompanhamos seu comportamento na internet em nosso site com cookies. Se você continuar, nós assumimos que você concorda com nossa política de cookies. Saiba mais